Time;durP1;ratioP1;P1;durP2;ratioP2;P2;SDS_P1;SDS_P2;PMS_P1;PMS_P2;Temp;Humidity;BMP_temperature;BMP_pressure;BME280_temperature;BME280_humidity;BME280_pressure;Samples;Min_cycle;Max_cycle;Signal;HPM_P1;HPM_P2
2021/03/05 00:01:30;;;;;;;;;;;;;;;;;;5033083;28;20354;-78
2021/03/05 00:03:56;;;;;;;;;;;;;;;;;;5032811;28;19916;-78
2021/03/05 00:06:22;;;;;;;;;;;;;;;;;;5033363;28;19912;-78
2021/03/05 00:08:47;;;;;;;;;;;;;;;;;;5032973;28;19955;-78
2021/03/05 00:11:13;;;;;;;;;;;;;;;;;;5033257;28;19905;-78
2021/03/05 00:13:39;;;;;;;;;;;;;;;;;;5033037;28;19912;-78
2021/03/05 00:16:05;;;;;;;;;;;;;;;;;;5032660;28;19909;-78
2021/03/05 00:18:31;;;;;;;;;;;;;;;;;;5032891;28;19920;-78
2021/03/05 00:20:57;;;;;;;;;;;;;;;;;;5033038;28;19904;-78
2021/03/05 00:23:23;;;;;;;;;;;;;;;;;;5032904;28;19908;-78
2021/03/05 00:25:49;;;;;;;;;;;;;;;;;;5032497;28;19912;-78
2021/03/05 00:28:15;;;;;;;;;;;;;;;;;;5032618;28;19901;-78
2021/03/05 00:30:41;;;;;;;;;;;;;;;;;;5031718;28;20378;-78
2021/03/05 00:33:07;;;;;;;;;;;;;;;;;;5032640;28;19905;-78
2021/03/05 00:35:33;;;;;;;;;;;;;;;;;;5032233;28;19916;-78
2021/03/05 00:37:59;;;;;;;;;;;;;;;;;;5032815;28;20259;-78
2021/03/05 00:40:25;;;;;;;;;;;;;;;;;;5032442;28;19951;-78
2021/03/05 00:42:51;;;;;;;;;;;;;;;;;;5032656;28;19916;-78
2021/03/05 00:45:17;;;;;;;;;;;;;;;;;;5032417;28;20385;-78
2021/03/05 00:47:42;;;;;;;;;;;;;;;;;;5032667;28;19967;-78
2021/03/05 00:50:08;;;;;;;;;;;;;;;;;;5038633;28;19979;-78
2021/03/05 00:52:34;;;;;;;;;;;;;;;;;;5042369;28;19911;-78
2021/03/05 00:55:00;;;;;;;;;;;;;;;;;;5032160;28;19913;-78
2021/03/05 00:57:26;;;;;;;;;;;;;;;;;;5031856;28;20269;-78
2021/03/05 00:59:52;;;;;;;;;;;;;;;;;;5033890;28;19927;-78
2021/03/05 01:02:18;;;;;;;;;;;;;;;;;;5043110;28;19920;-78
2021/03/05 01:04:44;;;;;;;;;;;;;;;;;;5042765;28;19912;-78
2021/03/05 01:07:10;;;;;;;;;;;;;;;;;;5038091;28;19905;-79
2021/03/05 01:09:36;;;;;;;;;;;;;;;;;;5035863;28;19909;-78
2021/03/05 01:12:01;;;;;;;;;;;;;;;;;;5032640;28;20354;-78
2021/03/05 01:14:27;;;;;;;;;;;;;;;;;;5031758;28;20271;-78
2021/03/05 01:16:53;;;;;;;;;;;;;;;;;;5032180;28;19955;-78
2021/03/05 01:19:22;;;;;;;;;;;;;;;;;;5032210;28;20282;-78
2021/03/05 01:21:48;;;;;;;;;;;;;;;;;;5032459;28;19905;-77
2021/03/05 01:24:14;;;;;;;;;;;;;;;;;;5031983;28;19999;-78
2021/03/05 01:26:40;;;;;;;;;;;;;;;;;;5031929;28;19905;-78
2021/03/05 01:29:06;;;;;;;;;;;;;;;;;;5030103;28;19909;-79
2021/03/05 01:31:32;;;;;;;;;;;;;;;;;;5031813;28;19905;-78
2021/03/05 01:33:58;;;;;;;;;;;;;;;;;;5031498;28;20273;-78
2021/03/05 01:36:24;;;;;;;;;;;;;;;;;;5031315;28;20358;-78
2021/03/05 01:38:50;;;;;;;;;;;;;;;;;;5031513;28;19905;-78
2021/03/05 01:41:16;;;;;;;;;;;;;;;;;;5031658;28;19908;-77
2021/03/05 01:43:42;;;;;;;;;;;;;;;;;;5031719;28;20269;-77
2021/03/05 01:46:08;;;;;;;;;;;;;;;;;;5031137;28;20385;-78
2021/03/05 01:48:33;;;;;;;;;;;;;;;;;;5031604;28;20007;-78
2021/03/05 01:50:59;;;;;;;;;;;;;;;;;;5034259;28;19944;-78
2021/03/05 01:53:25;;;;;;;;;;;;;;;;;;5041463;28;20012;-78
2021/03/05 01:55:51;;;;;;;;;;;;;;;;;;5040837;28;19913;-78
2021/03/05 01:58:17;;;;;;;;;;;;;;;;;;5032483;28;19913;-77
2021/03/05 02:00:43;;;;;;;;;;;;;;;;;;5039263;28;19937;-78
2021/03/05 02:03:09;;;;;;;;;;;;;;;;;;5052518;28;20366;-78
2021/03/05 02:05:35;;;;;;;;;;;;;;;;;;5046846;28;19908;-79
2021/03/05 02:08:01;;;;;;;;;;;;;;;;;;5046351;28;19912;-78
2021/03/05 02:10:27;;;;;;;;;;;;;;;;;;5031892;28;19901;-78
2021/03/05 02:12:53;;;;;;;;;;;;;;;;;;5031934;28;19905;-77
2021/03/05 02:15:18;;;;;;;;;;;;;;;;;;5029808;28;19913;-78
2021/03/05 02:17:45;;;;;;;;;;;;;;;;;;5031080;28;19909;-77
2021/03/05 02:20:11;;;;;;;;;;;;;;;;;;5031063;28;19927;-78
2021/03/05 02:22:37;;;;;;;;;;;;;;;;;;5031117;28;20421;-78
2021/03/05 02:25:18;;;;;;;;;;;6.40;99.90;;;;;;5030747;28;20333;-78
2021/03/05 02:28:02;;;;;;;;;;;5.50;99.90;;;;;;5031052;28;20281;-77
2021/03/05 02:30:28;;;;;;;;;;;;;;;;;;5030841;28;19906;-77
2021/03/05 02:32:54;;;;;;;;;;;;;;;;;;5030674;28;19905;-78
2021/03/05 02:35:19;;;;;;;;;;;;;;;;;;5030207;28;20358;-77
2021/03/05 02:37:45;;;;;;;;;;;;;;;;;;5030748;28;20007;-77
2021/03/05 02:40:11;;;;;;;;;;;;;;;;;;5030758;28;19980;-78
2021/03/05 02:42:37;;;;;;;;;;;;;;;;;;5030698;28;19927;-78
2021/03/05 02:45:03;;;;;;;;;;;;;;;;;;5030240;28;19912;-78
2021/03/05 02:47:29;;;;;;;;;;;;;;;;;;5030797;28;19955;-78
2021/03/05 02:49:55;;;;;;;;;;;;;;;;;;5032589;28;20350;-78
2021/03/05 02:52:21;;;;;;;;;;;;;;;;;;5043845;28;19911;-78
2021/03/05 02:54:47;;;;;;;;;;;;;;;;;;5034007;28;19963;-78
2021/03/05 02:57:13;;;;;;;;;;;;;;;;;;5034478;28;19955;-78
2021/03/05 02:59:38;;;;;;;;;;;;;;;;;;5033341;28;20297;-78
2021/03/05 03:02:04;;;;;;;;;;;;;;;;;;5034323;28;19905;-78
2021/03/05 03:04:30;;;;;;;;;;;;;;;;;;5033942;28;19905;-78
2021/03/05 03:06:56;;;;;;;;;;;;;;;;;;5034366;28;20286;-77
2021/03/05 03:09:22;;;;;;;;;;;;;;;;;;5034071;28;19912;-78
2021/03/05 03:11:48;;;;;;;;;;;;;;;;;;5034276;28;19931;-78
2021/03/05 03:14:14;;;;;;;;;;;;;;;;;;5033586;28;20256;-77
2021/03/05 03:16:40;;;;;;;;;;;;;;;;;;5034077;28;20371;-77
2021/03/05 03:19:06;;;;;;;;;;;;;;;;;;5033925;28;19955;-77
2021/03/05 03:21:32;;;;;;;;;;;;;;;;;;5034228;28;19959;-78
2021/03/05 03:23:57;;;;;;;;;;;;;;;;;;5033729;28;19912;-78
2021/03/05 03:26:23;;;;;;;;;;;;;;;;;;5034205;28;19905;-77
2021/03/05 03:28:49;;;;;;;;;;;;;;;;;;5032246;28;19992;-77
2021/03/05 03:31:17;;;;;;;;;;;;;;;;;;5033788;28;19912;-77
2021/03/05 03:33:43;;;;;;;;;;;;;;;;;;5033525;28;20381;-78
2021/03/05 03:36:09;;;;;;;;;;;;;;;;;;5029184;28;19913;-78
2021/03/05 03:38:34;;;;;;;;;;;;;;;;;;5033593;28;19905;-77
2021/03/05 03:41:00;;;;;;;;;;;;;;;;;;5047330;28;20325;-78
2021/03/05 03:43:26;;;;;;;;;;;;;;;;;;5053554;28;20011;-77
2021/03/05 03:45:52;;;;;;;;;;;;;;;;;;5053225;28;20281;-78
2021/03/05 03:48:18;;;;;;;;;;;;;;;;;;5053287;28;19952;-77
2021/03/05 03:50:44;;;;;;;;;;;;;;;;;;5053403;28;19915;-77
2021/03/05 03:53:10;;;;;;;;;;;;;;;;;;5053427;28;20258;-78
2021/03/05 03:55:36;;;;;;;;;;;;;;;;;;5052898;28;19913;-77
2021/03/05 03:58:02;;;;;;;;;;;;;;;;;;5053176;28;19912;-77
2021/03/05 04:00:28;;;;;;;;;;;;;;;;;;5052464;28;19911;-78
2021/03/05 04:02:54;;;;;;;;;;;;;;;;;;5053221;28;19905;-78
2021/03/05 04:05:20;;;;;;;;;;;;;;;;;;5052639;28;19946;-78
2021/03/05 04:07:46;;;;;;;;;;;;;;;;;;5053244;28;19957;-78
2021/03/05 04:10:12;;;;;;;;;;;;;;;;;;5052915;28;20389;-78
2021/03/05 04:12:38;;;;;;;;;;;;;;;;;;5053087;28;19928;-78
2021/03/05 04:15:04;;;;;;;;;;;;;;;;;;5052501;28;20008;-77
2021/03/05 04:17:29;;;;;;;;;;;;;;;;;;5052995;28;19937;-78
2021/03/05 04:19:55;;;;;;;;;;;;;;;;;;5052730;28;20392;-78
2021/03/05 04:22:21;;;;;;;;;;;;;;;;;;5052969;28;19905;-78
2021/03/05 04:24:47;;;;;;;;;;;;;;;;;;5052549;28;19988;-78
2021/03/05 04:27:13;;;;;;;;;;;;;;;;;;5052923;28;19936;-78
2021/03/05 04:29:39;;;;;;;;;;;;;;;;;;5052566;28;20401;-78
2021/03/05 04:32:05;;;;;;;;;;;;;;;;;;5053043;28;19943;-78
2021/03/05 04:34:31;;;;;;;;;;;;;;;;;;5052458;28;19927;-78
2021/03/05 04:36:57;;;;;;;;;;;;;;;;;;5052872;28;19905;-77
2021/03/05 04:39:23;;;;;;;;;;;;;;;;;;5052368;28;20329;-78
2021/03/05 04:41:49;;;;;;;;;;;;;;;;;;5052646;28;20003;-78
2021/03/05 04:44:15;;;;;;;;;;;;;;;;;;5052489;28;19904;-77
2021/03/05 04:46:40;;;;;;;;;;;;;;;;;;5052296;28;20320;-78
2021/03/05 04:49:06;;;;;;;;;;;;;;;;;;5052626;28;19905;-79
2021/03/05 04:51:32;;;;;;;;;;;;;;;;;;5032761;28;19907;-78
2021/03/05 04:53:58;;;;;;;;;;;;;;;;;;5032086;28;20255;-78
2021/03/05 04:56:24;;;;;;;;;;;;;;;;;;5032411;28;19908;-78
2021/03/05 04:58:50;;;;;;;;;;;;;;;;;;5032508;28;19912;-78
2021/03/05 05:01:16;;;;;;;;;;;;;;;;;;5032332;28;19905;-78
2021/03/05 05:03:42;;;;;;;;;;;;;;;;;;5033746;28;19905;-79
2021/03/05 05:06:07;;;;;;;;;;;;;;;;;;5043156;28;19912;-79
2021/03/05 05:08:33;;;;;;;;;;;;;;;;;;5046296;28;19905;-78
2021/03/05 05:10:59;;;;;;;;;;;;;;;;;;5045603;28;19913;-79
2021/03/05 05:13:25;;;;;;;;;;;;;;;;;;5034215;28;19971;-78
2021/03/05 05:15:51;;;;;;;;;;;;;;;;;;5030565;28;19917;-79
2021/03/05 05:18:17;;;;;;;;;;;;;;;;;;5032156;28;19909;-78
2021/03/05 05:20:43;;;;;;;;;;;;;;;;;;5032007;28;20333;-78
2021/03/05 05:23:09;;;;;;;;;;;;;;;;;;5032021;28;20281;-78
2021/03/05 05:25:35;;;;;;;;;;;;;;;;;;5033218;28;19915;-78
2021/03/05 05:28:00;;;;;;;;;;;;;;;;;;5036986;28;19940;-78
2021/03/05 05:30:26;;;;;;;;;;;;;;;;;;5034518;28;20389;-78
2021/03/05 05:32:52;;;;;;;;;;;;;;;;;;5031741;28;19952;-77
2021/03/05 05:35:18;;;;;;;;;;;;;;;;;;5031503;28;19909;-78
2021/03/05 05:37:44;;;;;;;;;;;;;;;;;;5031687;28;20419;-78
2021/03/05 05:40:10;;;;;;;;;;;;;;;;;;5031370;28;19931;-78
2021/03/05 05:42:36;;;;;;;;;;;;;;;;;;5031149;28;19909;-78
2021/03/05 05:45:02;;;;;;;;;;;;;;;;;;5030418;28;20358;-78
2021/03/05 05:47:28;;;;;;;;;;;;;;;;;;5031069;28;19931;-78
2021/03/05 05:49:54;;;;;;;;;;;;;;;;;;5029224;28;19905;-77
2021/03/05 05:52:20;;;;;;;;;;;;;;;;;;5025861;28;20448;-78
2021/03/05 05:54:46;;;;;;;;;;;;;;;;;;5028769;28;19909;-77
2021/03/05 05:57:12;;;;;;;;;;;;;;;;;;5029211;28;19909;-78
2021/03/05 05:59:37;;;;;;;;;;;;;;;;;;5036613;28;19927;-79
2021/03/05 06:02:03;;;;;;;;;;;;;;;;;;5037947;28;19936;-79
2021/03/05 06:04:29;;;;;;;;;;;;;;;;;;5036164;28;19928;-78
2021/03/05 06:06:55;;;;;;;;;;;;;;;;;;5029726;28;19905;-77
2021/03/05 06:09:21;;;;;;;;;;;;;;;;;;5029959;28;19912;-78
2021/03/05 06:11:47;;;;;;;;;;;;;;;;;;5029565;28;19959;-77
2021/03/05 06:14:13;;;;;;;;;;;;;;;;;;5028611;28;19995;-78
2021/03/05 06:16:39;;;;;;;;;;;;;;;;;;5029529;28;20392;-77
2021/03/05 06:19:05;;;;;;;;;;;;;;;;;;5029399;28;19959;-77
2021/03/05 06:21:31;;;;;;;;;;;;;;;;;;5029552;28;20031;-78
2021/03/05 06:23:57;;;;;;;;;;;;;;;;;;5028811;28;19909;-77
2021/03/05 06:26:23;;;;;;;;;;;;;;;;;;5029417;28;19917;-77
2021/03/05 06:28:49;;;;;;;;;;;;;;;;;;5029494;28;19912;-78
2021/03/05 06:31:15;;;;;;;;;;;;;;;;;;5028598;28;19905;-78
2021/03/05 06:33:41;;;;;;;;;;;;;;;;;;5029269;28;19971;-78
2021/03/05 06:36:07;;;;;;;;;;;;;;;;;;5029918;28;19912;-78
2021/03/05 06:38:33;;;;;;;;;;;;;;;;;;5030105;28;19912;-79
2021/03/05 06:40:59;;;;;;;;;;;;;;;;;;5032736;28;19949;-78
2021/03/05 06:43:25;;;;;;;;;;;;;;;;;;5046392;28;19904;-79
2021/03/05 06:45:51;;;;;;;;;;;;;;;;;;5042717;28;19916;-79
2021/03/05 06:48:16;;;;;;;;;;;;;;;;;;5029831;28;19947;-78
2021/03/05 06:50:43;;;;;;;;;;;;;;;;;;5028844;28;20366;-78
2021/03/05 06:53:09;;;;;;;;;;;;;;;;;;5028825;28;20008;-78
2021/03/05 06:55:34;;;;;;;;;;;;;;;;;;5032302;28;19987;-77
2021/03/05 06:58:00;;;;;;;;;;;;;;;;;;5032036;28;19918;-78
2021/03/05 07:00:27;;;;;;;;;;;;;;;;;;5019018;28;19925;-78
2021/03/05 07:02:53;;;;;;;;;;;;;;;;;;5042673;28;19958;-78
2021/03/05 07:05:19;;;;;;;;;;;;;;;;;;5049471;28;19905;-76
2021/03/05 07:07:45;;;;;;;;;;;;;;;;;;5027399;28;20397;-76
2021/03/05 07:10:11;;;;;;;;;;;;;;;;;;5035313;28;19912;-76
2021/03/05 07:12:37;;;;;;;;;;;;;;;;;;5048869;28;19908;-76
2021/03/05 07:15:02;;;;;;;;;;;;;;;;;;5048493;28;20431;-76
2021/03/05 07:17:29;;;;;;;;;;;;;;;;;;5038490;28;19981;-78
2021/03/05 07:19:55;;;;;;;;;;;;;;;;;;5029408;28;19916;-78
2021/03/05 07:22:21;;;;;;;;;;;;;;;;;;5028354;28;19905;-78
2021/03/05 07:24:47;;;;;;;;;;;;;;;;;;5027541;28;19909;-78
2021/03/05 07:27:13;;;;;;;;;;;;;;;;;;5027421;28;19916;-78
2021/03/05 07:29:43;;;;;;;;;;;;;;;;;;5035082;28;19905;-78
2021/03/05 07:32:09;;;;;;;;;;;;;;;;;;5041571;28;19912;-78
2021/03/05 07:34:35;;;;;;;;;;;;;;;;;;5037151;28;20273;-78
2021/03/05 07:37:01;;;;;;;;;;;;;;;;;;5032196;28;19928;-78
2021/03/05 07:39:26;;;;;;;;;;;;;;;;;;5032312;28;19909;-78
2021/03/05 07:41:52;;;;;;;;;;;;;;;;;;5031678;28;19987;-78
2021/03/05 07:44:18;;;;;;;;;;;;;;;;;;5031316;28;19988;-77
2021/03/05 07:46:44;;;;;;;;;;;;;;;;;;5031925;28;19944;-78
2021/03/05 07:49:10;;;;;;;;;;;;;;;;;;5032356;28;19909;-78
2021/03/05 07:51:36;;;;;;;;;;;;;;;;;;5033208;28;19909;-78
2021/03/05 07:54:04;;;;;;;;;;;;;;;;;;5031850;28;19920;-79
2021/03/05 07:56:30;;;;;;;;;;;;;;;;;;5032213;28;20366;-78
2021/03/05 07:58:56;;;;;;;;;;;;;;;;;;5031648;28;19913;-78
2021/03/05 08:01:22;;;;;;;;;;;;;;;;;;5032069;28;19908;-78
2021/03/05 08:03:47;;;;;;;;;;;;;;;;;;5031966;28;20379;-78
2021/03/05 08:06:13;;;;;;;;;;;;;;;;;;5031901;28;19935;-78
2021/03/05 08:08:39;;;;;;;;;;;;;;;;;;5030717;28;19905;-78
2021/03/05 08:11:05;;;;;;;;;;;;;;;;;;5030655;28;20348;-78
2021/03/05 08:13:31;;;;;;;;;;;;;;;;;;5031509;28;19905;-78
2021/03/05 08:15:57;;;;;;;;;;;;;;;;;;5030473;28;19932;-78
2021/03/05 08:18:23;;;;;;;;;;;;;;;;;;5031644;28;19931;-78
2021/03/05 08:20:49;;;;;;;;;;;;;;;;;;5031457;28;19905;-78
2021/03/05 08:23:16;;;;;;;;;;;;;;;;;;5031565;28;19952;-78
2021/03/05 08:25:42;;;;;;;;;;;;;;;;;;5030905;28;19905;-79
2021/03/05 08:28:08;;;;;;;;;;;;;;;;;;5048759;28;19928;-79
2021/03/05 08:30:33;;;;;;;;;;;;;;;;;;5042862;28;19989;-79
2021/03/05 08:32:59;;;;;;;;;;;;;;;;;;5038362;28;19968;-79
2021/03/05 08:35:25;;;;;;;;;;;;;;;;;;5030492;28;20329;-78
2021/03/05 08:37:51;;;;;;;;;;;;;;;;;;5039083;28;19987;-78
2021/03/05 08:40:17;;;;;;;;;;;;;;;;;;5032007;28;19915;-78
2021/03/05 08:42:43;;;;;;;;;;;;;;;;;;5031317;28;20416;-79
2021/03/05 08:45:09;;;;;;;;;;;;;;;;;;5031284;28;19905;-78
2021/03/05 08:47:35;;;;;;;;;;;;;;;;;;5031156;28;19928;-78
2021/03/05 08:50:01;;;;;;;;;;;;;;;;;;5030830;28;19905;-78
2021/03/05 08:52:27;;;;;;;;;;;;;;;;;;5030800;28;19909;-79
2021/03/05 08:54:53;;;;;;;;;;;;;;;;;;5030427;28;19913;-79
2021/03/05 08:57:19;;;;;;;;;;;;;;;;;;5029661;28;19905;-78
2021/03/05 08:59:48;;;;;;;;;;;;;;;;;;5031137;28;20369;-78
2021/03/05 09:02:14;;;;;;;;;;;;;;;;;;5037962;28;20004;-78
2021/03/05 09:04:39;;;;;;;;;;;;;;;;;;5050670;28;19944;-78
2021/03/05 09:07:05;;;;;;;;;;;;;;;;;;5050110;28;19999;-78
2021/03/05 09:09:32;;;;;;;;;;;;;;;;;;5050584;28;19908;-78
2021/03/05 09:11:58;;;;;;;;;;;;;;;;;;5040832;28;20408;-78
2021/03/05 09:14:24;;;;;;;;;;;;;;;;;;5030387;28;19905;-78
2021/03/05 09:16:50;;;;;;;;;;;;;;;;;;5030513;28;19912;-78
2021/03/05 09:19:16;;;;;;;;;;;;;;;;;;5030834;28;19905;-78
2021/03/05 09:21:42;;;;;;;;;;;;;;;;;;5034748;28;20358;-78
2021/03/05 09:24:08;;;;;;;;;;;;;;;;;;5030271;28;19912;-78
2021/03/05 09:26:33;;;;;;;;;;;;;;;;;;5030080;28;19916;-78
2021/03/05 09:29:03;;;;;;;;;;;;;;;;;;5029022;28;20381;-78
2021/03/05 09:31:29;;;;;;;;;;;;;;;;;;5011887;28;19906;-78
2021/03/05 09:33:55;;;;;;;;;;;;;;;;;;5010563;28;19905;-78
2021/03/05 09:36:21;;;;;;;;;;;;;;;;;;5011502;28;19915;-77
2021/03/05 09:38:47;;;;;;;;;;;;;;;;;;5010149;28;19905;-78
2021/03/05 09:41:13;;;;;;;;;;;;;;;;;;5010778;28;19905;-79
2021/03/05 09:43:39;;;;;;;;;;;;;;;;;;5010669;28;19905;-78
2021/03/05 09:46:06;;;;;;;;;;;;;;;;;;5010199;28;19912;-79
2021/03/05 09:48:32;;;;;;;;;;;;;;;;;;5012748;28;19933;-78
2021/03/05 09:50:58;;;;;;;;;;;;;;;;;;5037974;28;20362;-77
2021/03/05 09:53:25;;;;;;;;;;;;;;;;;;5034111;28;19912;-78
2021/03/05 09:55:51;;;;;;;;;;;;;;;;;;5029890;28;19913;-77
2021/03/05 09:58:17;;;;;;;;;;;;;;;;;;5029364;28;20011;-78
2021/03/05 10:00:43;;;;;;;;;;;;;;;;;;5030618;28;19905;-78
2021/03/05 10:03:09;;;;;;;;;;;;;;;;;;5027077;28;19909;-78
2021/03/05 10:05:35;;;;;;;;;;;;;;;;;;5029740;28;19911;-78
2021/03/05 10:08:01;;;;;;;;;;;;;;;;;;5030671;28;19905;-78
2021/03/05 10:10:27;;;;;;;;;;;;;;;;;;5031248;28;19913;-78
2021/03/05 10:12:52;;;;;;;;;;;;;;;;;;5030874;28;19905;-78
2021/03/05 10:15:18;;;;;;;;;;;;;;;;;;5030205;28;19909;-77
2021/03/05 10:17:44;;;;;;;;;;;;;;;;;;5029988;28;19919;-78
2021/03/05 10:20:10;;;;;;;;;;;;;;;;;;5038486;28;19905;-78
2021/03/05 10:22:36;;;;;;;;;;;;;;;;;;5048497;28;19916;-78
2021/03/05 10:25:02;;;;;;;;;;;;;;;;;;5032174;28;19905;-77
2021/03/05 10:27:28;;;;;;;;;;;;;;;;;;5030622;28;19905;-78
2021/03/05 10:29:57;;;;;;;;;;;;;;;;;;5030477;28;19906;-78
2021/03/05 10:32:23;;;;;;;;;;;;;;;;;;5032283;28;19912;-78
2021/03/05 10:34:49;;;;;;;;;;;;;;;;;;5037275;28;19912;-78
2021/03/05 10:37:15;;;;;;;;;;;;;;;;;;5039237;28;19959;-78
2021/03/05 10:39:41;;;;;;;;;;;;;;;;;;5034151;28;19905;-77
2021/03/05 10:42:07;;;;;;;;;;;;;;;;;;5030845;28;19963;-77
2021/03/05 10:44:33;;;;;;;;;;;;;;;;;;5030352;28;20451;-77
2021/03/05 10:46:59;;;;;;;;;;;;;;;;;;5031087;28;19905;-77
2021/03/05 10:49:25;;;;;;;;;;;;;;;;;;5030120;28;19928;-78
2021/03/05 10:51:50;;;;;;;;;;;;;;;;;;5030603;28;19905;-78
2021/03/05 10:54:16;;;;;;;;;;;;;;;;;;5029963;28;20370;-78
2021/03/05 10:56:42;;;;;;;;;;;5.40;99.90;;;;;;5030626;28;19916;-78
2021/03/05 10:59:09;;;;;;;;;;;;;;;;;;5029841;28;19944;-78
2021/03/05 11:01:35;;;;;;;;;;;;;;;;;;5030409;28;20392;-78
2021/03/05 11:04:01;;;;;;;;;;;;;;;;;;5029937;28;19909;-78
2021/03/05 11:06:27;;;;;;;;;;;;;;;;;;5030915;28;20030;-78
2021/03/05 11:08:53;;;;;;;;;;;;;;;;;;5030740;28;19931;-78
2021/03/05 11:11:19;;;;;;;;;;;;;;;;;;5033510;28;20413;-78
2021/03/05 11:13:44;;;;;;;;;;;;;;;;;;5033863;28;19960;-78
2021/03/05 11:16:10;;;;;;;;;;;;;;;;;;5048113;28;19912;-78
2021/03/05 11:18:36;;;;;;;;;;;;;;;;;;5053911;28;19915;-78
2021/03/05 11:21:02;;;;;;;;;;;;;;;;;;5055043;28;19905;-78
2021/03/05 11:23:28;;;;;;;;;;;;;;;;;;5046671;28;19947;-78
2021/03/05 11:25:54;;;;;;;;;;;;;;;;;;5045444;28;20385;-78
2021/03/05 11:28:20;;;;;;;;;;;;;;;;;;5041230;28;19905;-78
2021/03/05 11:30:46;;;;;;;;;;;;;;;;;;5039141;28;20359;-78
2021/03/05 11:33:12;;;;;;;;;;;;;;;;;;5034038;28;19911;-78
2021/03/05 11:35:38;;;;;;;;;;;;;;;;;;5033173;28;19913;-79
2021/03/05 11:38:04;;;;;;;;;;;;;;;;;;5033833;28;19905;-78
2021/03/05 11:40:29;;;;;;;;;;;;;;;;;;5033626;28;20386;-78
2021/03/05 11:42:55;;;;;;;;;;;;;;;;;;5033613;28;19912;-79
2021/03/05 11:45:21;;;;;;;;;;;;;;;;;;5033031;28;19944;-79
2021/03/05 11:47:47;;;;;;;;;;;;;;;;;;5033481;28;20410;-78
2021/03/05 11:50:14;;;;;;;;;;;;;;;;;;5033117;28;20313;-78
2021/03/05 11:52:40;;;;;;;;;;;;;;;;;;5033272;28;20328;-78
2021/03/05 11:55:06;;;;;;;;;;;;;;;;;;5032725;28;20177;-78
2021/03/05 11:57:32;;;;;;;;;;;;;;;;;;5033234;28;19931;-78
2021/03/05 11:59:58;;;;;;;;;;;;;;;;;;5032816;28;19976;-78
2021/03/05 12:02:23;;;;;;;;;;;;;;;;;;5033133;28;20285;-78
2021/03/05 12:04:50;;;;;;;;;;;6.80;99.90;;;;;;5032685;28;20004;-78
2021/03/05 12:07:15;;;;;;;;;;;7.10;99.90;;;;;;5033121;28;19940;-78
2021/03/05 12:09:41;;;;;;;;;;;7.10;99.90;;;;;;5032991;28;20002;-77
2021/03/05 12:12:06;;;;;;;;;;;7.30;99.90;;;;;;5033248;28;19909;-78
2021/03/05 12:14:32;;;;;;;;;;;7.50;99.90;;;;;;5032816;28;19905;-78
2021/03/05 12:16:57;;;;;;;;;;;7.20;99.90;;;;;;5032791;28;19905;-78
2021/03/05 12:19:24;;;;;;;;;;;7.20;99.90;;;;;;5033757;28;20374;-78
2021/03/05 12:21:49;;;;;;;;;;;7.20;99.90;;;;;;5032778;28;19904;-78
2021/03/05 12:24:15;;;;;;;;;;;7.20;99.90;;;;;;5029467;28;21325;-77
2021/03/05 12:26:41;;;;;;;;;;;;;;;;;;5037636;28;19908;-79
2021/03/05 12:29:08;;;;;;;;;;;;;;;;;;5037083;28;20289;-77
2021/03/05 12:31:34;;;;;;;;;;;;;;;;;;5034240;28;19999;-78
2021/03/05 12:34:03;;;;;;;;;;;;;;;;;;5031776;28;20970;-79
2021/03/05 12:36:29;;;;;;;;;;;;;;;;;;5031637;28;19909;-79
2021/03/05 12:38:55;;;;;;;;;;;;;;;;;;5031218;28;19954;-77
2021/03/05 12:41:21;;;;;;;;;;;;;;;;;;5032273;28;20358;-79
2021/03/05 12:43:47;;;;;;;;;;;;;;;;;;5032665;28;19909;-79
2021/03/05 12:46:13;;;;;;;;;;;;;;;;;;5032763;28;19905;-78
2021/03/05 12:48:39;;;;;;;;;;;;;;;;;;5032378;28;19905;-79
2021/03/05 12:51:05;;;;;;;;;;;;;;;;;;5032448;28;19928;-79
2021/03/05 12:53:31;;;;;;;;;;;;;;;;;;5032519;28;19909;-78
2021/03/05 12:55:57;;;;;;;;;;;;;;;;;;5031696;28;20012;-78
2021/03/05 12:58:23;;;;;;;;;;;;;;;;;;5030972;28;19913;-78
2021/03/05 13:00:49;;;;;;;;;;;;;;;;;;5031774;28;19905;-78
2021/03/05 13:03:15;;;;;;;;;;;;;;;;;;5032211;28;19901;-78
2021/03/05 13:05:40;;;;;;;;;;;;;;;;;;5031512;28;19984;-78
2021/03/05 13:08:07;;;;;;;;;;;;;;;;;;5032092;28;19905;-78
2021/03/05 13:10:33;;;;;;;;;;;;;;;;;;5031765;28;20401;-79
2021/03/05 13:12:59;;;;;;;;;;;;;;;;;;5031755;28;19901;-78
2021/03/05 13:15:27;;;;;;;;;;;;;;;;;;5031314;28;19916;-78
2021/03/05 13:17:53;;;;;;;;;;;;;;;;;;5031824;28;19904;-77
2021/03/05 13:20:19;;;;;;;;;;;;;;;;;;5028144;28;20093;-78
2021/03/05 13:22:45;;;;;;;;;;;;;;;;;;5031600;28;20011;-78
2021/03/05 13:25:18;;;;;;;;;;;;;;;;;;5031239;28;19911;-79
2021/03/05 13:27:44;;;;;;;;;;;7.30;99.90;;;;;;5028818;28;19941;-78
2021/03/05 13:30:11;;;;;;;;;;;;;;;;;;5011604;28;19951;-77
2021/03/05 13:32:37;;;;;;;;;;;;;;;;;;5010960;28;19984;-77
2021/03/05 13:35:02;;;;;;;;;;;;;;;;;;5011085;28;19917;-78
2021/03/05 13:37:29;;;;;;;;;;;;;;;;;;5011433;28;19936;-79
2021/03/05 13:39:54;;;;;;;;;;;;;;;;;;5027972;28;20347;-78
2021/03/05 13:42:21;;;;;;;;;;;;;;;;;;5027706;28;20001;-79
2021/03/05 13:44:47;;;;;;;;;;;;;;;;;;5027584;28;19909;-78
2021/03/05 13:47:13;;;;;;;;;;;;;;;;;;5027985;28;19952;-78
2021/03/05 13:49:39;;;;;;;;;;;;;;;;;;5027798;28;19999;-78
2021/03/05 13:52:05;;;;;;;;;;;;;;;;;;5027831;28;19913;-78
2021/03/05 13:54:31;;;;;;;;;;;;;;;;;;5027297;28;20333;-78
2021/03/05 13:56:58;;;;;;;;;;;;;;;;;;5027649;28;19910;-78
2021/03/05 13:59:24;;;;;;;;;;;;;;;;;;5027636;28;19913;-78
2021/03/05 14:01:50;;;;;;;;;;;;;;;;;;5027635;28;20343;-78
2021/03/05 14:04:16;;;;;;;;;;;;;;;;;;5028921;28;20031;-79
2021/03/05 14:06:42;;;;;;;;;;;;;;;;;;5027691;28;19911;-78
2021/03/05 14:09:08;;;;;;;;;;;;;;;;;;5027635;28;19905;-78
2021/03/05 14:11:34;;;;;;;;;;;;;;;;;;5027418;28;19909;-77
2021/03/05 14:14:00;;;;;;;;;;;;;;;;;;5027579;28;20009;-78
2021/03/05 14:16:26;;;;;;;;;;;;;;;;;;5030892;28;19913;-79
2021/03/05 14:18:51;;;;;;;;;;;;;;;;;;5030922;28;19916;-78
2021/03/05 14:21:17;;;;;;;;;;;;;;;;;;5030917;28;19909;-78
2021/03/05 14:23:43;;;;;;;;;;;;;;;;;;5030949;28;19955;-79
2021/03/05 14:26:09;;;;;;;;;;;;;;;;;;5030707;28;19948;-79
2021/03/05 14:28:35;;;;;;;;;;;;;;;;;;5031394;28;19992;-79
2021/03/05 14:31:01;;;;;;;;;;;;;;;;;;5032261;28;19909;-79
2021/03/05 14:33:27;;;;;;;;;;;;;;;;;;5040355;28;19909;-78
2021/03/05 14:35:53;;;;;;;;;;;;;;;;;;5040459;28;19996;-78
2021/03/05 14:38:19;;;;;;;;;;;;;;;;;;5047214;28;19999;-79
2021/03/05 14:40:45;;;;;;;;;;;;;;;;;;5039016;28;19924;-79
2021/03/05 14:43:11;;;;;;;;;;;;;;;;;;5029662;28;19905;-79
2021/03/05 14:45:36;;;;;;;;;;;;;;;;;;5032765;28;19924;-77
2021/03/05 14:48:02;;;;;;;;;;;;;;;;;;5033694;28;19916;-79
2021/03/05 14:50:28;;;;;;;;;;;;;;;;;;5033783;28;19912;-79
2021/03/05 14:52:56;;;;;;;;;;;;;;;;;;5033751;28;20019;-78
2021/03/05 14:55:22;;;;;;;;;;;;;;;;;;5033431;28;19913;-79
2021/03/05 14:57:48;;;;;;;;;;;;;;;;;;5033186;28;20417;-78
2021/03/05 15:00:14;;;;;;;;;;;;;;;;;;5033678;28;20353;-78
2021/03/05 15:02:39;;;;;;;;;;;;;;;;;;5033466;28;19905;-78
2021/03/05 15:05:05;;;;;;;;;;;;;;;;;;5033106;28;20369;-78
2021/03/05 15:07:31;;;;;;;;;;;;;;;;;;5033026;28;19912;-78
2021/03/05 15:09:57;;;;;;;;;;;;;;;;;;5033530;28;19905;-77
2021/03/05 15:12:24;;;;;;;;;;;;;;;;;;5033540;28;19905;-78
2021/03/05 15:14:50;;;;;;;;;;;;;;;;;;5033544;28;20297;-79
2021/03/05 15:17:16;;;;;;;;;;;;;;;;;;5034769;28;19912;-79
2021/03/05 15:19:41;;;;;;;;;;;;;;;;;;5035754;28;19905;-80
2021/03/05 15:22:07;;;;;;;;;;;;;;;;;;5036859;28;19913;-80
2021/03/05 15:24:33;;;;;;;;;;;;;;;;;;5036937;28;19912;-80
2021/03/05 15:26:59;;;;;;;;;;;;;;;;;;5038859;28;20354;-78
2021/03/05 15:29:26;;;;;;;;;;;;;;;;;;5040385;28;19999;-80
2021/03/05 15:31:52;;;;;;;;;;;;;;;;;;5033915;28;20328;-79
2021/03/05 15:34:18;;;;;;;;;;;;;;;;;;5033461;28;20424;-79
2021/03/05 15:36:44;;;;;;;;;;;;;;;;;;5032772;28;19909;-79
2021/03/05 15:39:09;;;;;;;;;;;;;;;;;;5032848;28;19905;-78
2021/03/05 15:41:35;;;;;;;;;;;;;;;;;;5032889;28;20282;-78
2021/03/05 15:44:01;;;;;;;;;;;;;;;;;;5032665;28;19905;-77
2021/03/05 15:46:27;;;;;;;;;;;;;;;;;;5034332;28;19916;-79
2021/03/05 15:48:53;;;;;;;;;;;;;;;;;;5032517;28;19930;-78
2021/03/05 15:51:19;;;;;;;;;;;;;;;;;;5033372;28;19960;-79
2021/03/05 15:53:46;;;;;;;;;;;;;;;;;;5033660;28;20384;-78
2021/03/05 15:56:12;;;;;;;;;;;;;;;;;;5041039;28;19967;-78
2021/03/05 15:58:38;;;;;;;;;;;;;;;;;;5033658;28;19913;-78
2021/03/05 16:01:04;;;;;;;;;;;;;;;;;;5032815;28;20378;-78
2021/03/05 16:03:29;;;;;;;;;;;;;;;;;;5033128;28;20332;-78
2021/03/05 16:05:55;;;;;;;;;;;;;;;;;;5032820;28;19944;-78
2021/03/05 16:08:21;;;;;;;;;;;;;;;;;;5047995;28;19958;-79
2021/03/05 16:10:47;;;;;;;;;;;;;;;;;;5052959;28;20015;-78
2021/03/05 16:13:13;;;;;;;;;;;;;;;;;;5052682;28;19904;-78
2021/03/05 16:15:39;;;;;;;;;;;;;;;;;;5051871;28;19959;-78
2021/03/05 16:18:05;;;;;;;;;;;;;;;;;;5053838;28;19909;-78
2021/03/05 16:20:31;;;;;;;;;;;;;;;;;;5052459;28;20163;-78
2021/03/05 16:22:57;;;;;;;;;;;;;;;;;;5052704;28;19904;-78
2021/03/05 16:25:23;;;;;;;;;;;;;;;;;;5052163;28;19905;-77
2021/03/05 16:27:48;;;;;;;;;;;;;;;;;;5052154;28;19908;-78
2021/03/05 16:30:14;;;;;;;;;;;;;;;;;;5052196;28;19954;-78
2021/03/05 16:32:40;;;;;;;;;;;;;;;;;;5052263;28;20366;-78